sensor_id;sensor_type;location;lat;lon;timestamp;pressure;altitude;pressure_sealevel;temperature;humidity
31121;BME280;17770;45.966;13.632;2022-07-30T00:01:30;100245.56;;;33.59;34.90
31121;BME280;17770;45.966;13.632;2022-07-30T00:03:56;100248.41;;;33.57;34.85
31121;BME280;17770;45.966;13.632;2022-07-30T00:06:21;100237.09;;;33.55;34.98
31121;BME280;17770;45.966;13.632;2022-07-30T00:08:47;100237.72;;;33.57;34.87
31121;BME280;17770;45.966;13.632;2022-07-30T00:11:13;100234.41;;;33.55;35.09
31121;BME280;17770;45.966;13.632;2022-07-30T00:13:39;100237.09;;;33.55;34.97
31121;BME280;17770;45.966;13.632;2022-07-30T00:16:05;100234.81;;;33.52;35.29
31121;BME280;17770;45.966;13.632;2022-07-30T00:18:32;100228.00;;;33.50;35.31
31121;BME280;17770;45.966;13.632;2022-07-30T00:20:58;100223.50;;;33.50;35.16
31121;BME280;17770;45.966;13.632;2022-07-30T00:23:23;100236.03;;;33.50;35.24
31121;BME280;17770;45.966;13.632;2022-07-30T00:25:49;100235.41;;;33.48;35.24
31121;BME280;17770;45.966;13.632;2022-07-30T00:28:15;100248.56;;;33.49;35.25
31121;BME280;17770;45.966;13.632;2022-07-30T00:30:41;100253.09;;;33.49;35.19
31121;BME280;17770;45.966;13.632;2022-07-30T00:33:07;100241.34;;;33.43;35.03
31121;BME280;17770;45.966;13.632;2022-07-30T00:35:32;100241.16;;;33.45;35.25
31121;BME280;17770;45.966;13.632;2022-07-30T00:37:58;100243.19;;;33.43;35.46
31121;BME280;17770;45.966;13.632;2022-07-30T00:40:24;100245.84;;;33.43;35.04
31121;BME280;17770;45.966;13.632;2022-07-30T00:42:50;100243.38;;;33.41;35.23
31121;BME280;17770;45.966;13.632;2022-07-30T00:45:16;100248.72;;;33.41;35.06
31121;BME280;17770;45.966;13.632;2022-07-30T00:47:42;100251.41;;;33.41;35.59
31121;BME280;17770;45.966;13.632;2022-07-30T00:50:09;100259.78;;;33.38;35.49
31121;BME280;17770;45.966;13.632;2022-07-30T00:52:35;100265.97;;;33.39;35.31
31121;BME280;17770;45.966;13.632;2022-07-30T00:55:03;100268.47;;;33.40;35.54
31121;BME280;17770;45.966;13.632;2022-07-30T00:57:29;100270.88;;;33.35;35.43
31121;BME280;17770;45.966;13.632;2022-07-30T00:59:55;100280.94;;;33.33;35.52
31121;BME280;17770;45.966;13.632;2022-07-30T01:02:22;100277.63;;;33.31;35.73
31121;BME280;17770;45.966;13.632;2022-07-30T01:04:48;100276.59;;;33.32;35.81
31121;BME280;17770;45.966;13.632;2022-07-30T01:07:14;100262.63;;;33.30;36.00
31121;BME280;17770;45.966;13.632;2022-07-30T01:09:40;100255.41;;;33.31;36.03
31121;BME280;17770;45.966;13.632;2022-07-30T01:12:06;100254.78;;;33.29;36.10
31121;BME280;17770;45.966;13.632;2022-07-30T01:14:33;100247.75;;;33.28;36.10
31121;BME280;17770;45.966;13.632;2022-07-30T01:16:59;100246.97;;;33.27;36.05
31121;BME280;17770;45.966;13.632;2022-07-30T01:19:26;100241.78;;;33.26;36.32
31121;BME280;17770;45.966;13.632;2022-07-30T01:25:03;100233.94;;;33.24;36.09
31121;BME280;17770;45.966;13.632;2022-07-30T01:27:33;100232.13;;;33.25;36.39
31121;BME280;17770;45.966;13.632;2022-07-30T01:30:00;100233.34;;;33.22;36.36
31121;BME280;17770;45.966;13.632;2022-07-30T01:32:27;100234.16;;;33.23;36.34
31121;BME280;17770;45.966;13.632;2022-07-30T01:34:54;100229.81;;;33.22;36.47
31121;BME280;17770;45.966;13.632;2022-07-30T01:37:22;100232.50;;;33.22;36.77
31121;BME280;17770;45.966;13.632;2022-07-30T01:39:49;100218.50;;;33.20;36.80
31121;BME280;17770;45.966;13.632;2022-07-30T01:42:16;100204.47;;;33.18;36.82
31121;BME280;17770;45.966;13.632;2022-07-30T01:44:43;100213.34;;;33.18;36.99
31121;BME280;17770;45.966;13.632;2022-07-30T01:47:10;100217.06;;;33.17;36.94
31121;BME280;17770;45.966;13.632;2022-07-30T01:49:37;100211.06;;;33.15;37.09
31121;BME280;17770;45.966;13.632;2022-07-30T01:52:06;100207.75;;;33.13;37.20
31121;BME280;17770;45.966;13.632;2022-07-30T01:54:32;100218.44;;;33.13;37.05
31121;BME280;17770;45.966;13.632;2022-07-30T01:56:59;100218.44;;;33.13;36.94
31121;BME280;17770;45.966;13.632;2022-07-30T01:59:26;100216.81;;;33.12;37.02
31121;BME280;17770;45.966;13.632;2022-07-30T02:01:52;100214.13;;;33.12;36.77
31121;BME280;17770;45.966;13.632;2022-07-30T02:04:18;100212.44;;;33.11;37.26
31121;BME280;17770;45.966;13.632;2022-07-30T02:06:51;100203.78;;;33.09;37.21
31121;BME280;17770;45.966;13.632;2022-07-30T02:09:21;100221.72;;;33.09;37.15
31121;BME280;17770;45.966;13.632;2022-07-30T02:11:50;100217.34;;;33.08;37.61
31121;BME280;17770;45.966;13.632;2022-07-30T02:14:38;100213.03;;;33.07;37.29
31121;BME280;17770;45.966;13.632;2022-07-30T02:17:05;100214.88;;;33.06;37.43
31121;BME280;17770;45.966;13.632;2022-07-30T02:19:33;100210.56;;;33.05;37.73
31121;BME280;17770;45.966;13.632;2022-07-30T02:22:02;100204.38;;;33.04;37.89
31121;BME280;17770;45.966;13.632;2022-07-30T02:24:31;100197.59;;;33.02;37.57
31121;BME280;17770;45.966;13.632;2022-07-30T02:27:02;100192.25;;;33.02;37.89
31121;BME280;17770;45.966;13.632;2022-07-30T02:29:30;100190.38;;;33.02;37.87
31121;BME280;17770;45.966;13.632;2022-07-30T02:31:57;100196.94;;;33.00;37.94
31121;BME280;17770;45.966;13.632;2022-07-30T02:34:25;100197.97;;;32.99;37.98
31121;BME280;17770;45.966;13.632;2022-07-30T02:36:51;100193.63;;;32.98;37.95
31121;BME280;17770;45.966;13.632;2022-07-30T02:39:18;100194.66;;;32.97;37.96
31121;BME280;17770;45.966;13.632;2022-07-30T02:41:45;100192.00;;;32.97;37.93
31121;BME280;17770;45.966;13.632;2022-07-30T02:44:12;100193.00;;;32.96;38.05
31121;BME280;17770;45.966;13.632;2022-07-30T02:46:41;100192.19;;;32.95;38.26
31121;BME280;17770;45.966;13.632;2022-07-30T02:49:22;100187.19;;;32.92;38.09
31121;BME280;17770;45.966;13.632;2022-07-30T02:51:49;100184.72;;;32.91;38.10
31121;BME280;17770;45.966;13.632;2022-07-30T02:54:16;100185.56;;;32.91;38.42
31121;BME280;17770;45.966;13.632;2022-07-30T02:56:43;100176.72;;;32.91;37.75
31121;BME280;17770;45.966;13.632;2022-07-30T02:59:10;100176.88;;;32.89;38.00
31121;BME280;17770;45.966;13.632;2022-07-30T03:01:36;100178.75;;;32.89;38.14
31121;BME280;17770;45.966;13.632;2022-07-30T03:04:02;100176.88;;;32.89;38.19
31121;BME280;17770;45.966;13.632;2022-07-30T03:06:29;100182.41;;;32.88;37.97
31121;BME280;17770;45.966;13.632;2022-07-30T03:08:58;100179.75;;;32.88;38.15
31121;BME280;17770;45.966;13.632;2022-07-30T03:11:24;100181.56;;;32.87;38.23
31121;BME280;17770;45.966;13.632;2022-07-30T03:16:27;100184.84;;;32.83;38.52
31121;BME280;17770;45.966;13.632;2022-07-30T03:18:55;100184.03;;;32.82;38.16
31121;BME280;17770;45.966;13.632;2022-07-30T03:21:24;100192.84;;;32.83;38.31
31121;BME280;17770;45.966;13.632;2022-07-30T03:23:50;100188.72;;;32.80;38.34
31121;BME280;17770;45.966;13.632;2022-07-30T03:26:19;100193.44;;;32.78;38.91
31121;BME280;17770;45.966;13.632;2022-07-30T03:28:47;100192.41;;;32.79;38.70
31121;BME280;17770;45.966;13.632;2022-07-30T03:31:14;100190.75;;;32.78;39.06
31121;BME280;17770;45.966;13.632;2022-07-30T03:33:40;100194.28;;;32.79;38.62
31121;BME280;17770;45.966;13.632;2022-07-30T03:36:07;100198.13;;;32.76;38.96
31121;BME280;17770;45.966;13.632;2022-07-30T03:38:35;100192.16;;;32.74;39.34
31121;BME280;17770;45.966;13.632;2022-07-30T03:41:03;100193.81;;;32.75;38.70
31121;BME280;17770;45.966;13.632;2022-07-30T03:43:29;100199.38;;;32.74;38.98
31121;BME280;17770;45.966;13.632;2022-07-30T03:45:56;100203.69;;;32.75;39.05
31121;BME280;17770;45.966;13.632;2022-07-30T03:48:24;100207.38;;;32.74;38.90
31121;BME280;17770;45.966;13.632;2022-07-30T03:50:54;100203.03;;;32.73;39.02
31121;BME280;17770;45.966;13.632;2022-07-30T03:53:20;100211.25;;;32.71;39.50
31121;BME280;17770;45.966;13.632;2022-07-30T03:56:12;100226.47;;;32.71;39.11
31121;BME280;17770;45.966;13.632;2022-07-30T03:58:54;100233.47;;;32.72;39.59
31121;BME280;17770;45.966;13.632;2022-07-30T04:01:23;100232.81;;;32.70;39.59
31121;BME280;17770;45.966;13.632;2022-07-30T04:03:49;100233.84;;;32.69;39.03
31121;BME280;17770;45.966;13.632;2022-07-30T04:06:15;100236.53;;;32.69;39.26
31121;BME280;17770;45.966;13.632;2022-07-30T04:08:41;100247.41;;;32.67;39.42
31121;BME280;17770;45.966;13.632;2022-07-30T04:11:06;100243.88;;;32.67;39.21
31121;BME280;17770;45.966;13.632;2022-07-30T04:13:47;100245.91;;;32.65;39.19
31121;BME280;17770;45.966;13.632;2022-07-30T04:16:19;100246.94;;;32.64;39.51
31121;BME280;17770;45.966;13.632;2022-07-30T04:18:49;100251.47;;;32.63;39.69
31121;BME280;17770;45.966;13.632;2022-07-30T04:21:17;100259.47;;;32.63;39.38
31121;BME280;17770;45.966;13.632;2022-07-30T04:23:44;100265.00;;;32.62;39.94
31121;BME280;17770;45.966;13.632;2022-07-30T04:26:10;100266.03;;;32.61;39.61
31121;BME280;17770;45.966;13.632;2022-07-30T04:28:37;100276.72;;;32.61;39.75
31121;BME280;17770;45.966;13.632;2022-07-30T04:31:03;100282.06;;;32.61;39.54
31121;BME280;17770;45.966;13.632;2022-07-30T04:33:29;100276.91;;;32.59;39.20
31121;BME280;17770;45.966;13.632;2022-07-30T04:36:06;100275.44;;;32.57;39.63
31121;BME280;17770;45.966;13.632;2022-07-30T04:38:34;100286.97;;;32.57;39.37
31121;BME280;17770;45.966;13.632;2022-07-30T04:41:01;100284.47;;;32.56;39.98
31121;BME280;17770;45.966;13.632;2022-07-30T04:43:31;100280.97;;;32.55;39.37
31121;BME280;17770;45.966;13.632;2022-07-30T04:45:57;100280.13;;;32.55;39.28
31121;BME280;17770;45.966;13.632;2022-07-30T04:48:23;100273.97;;;32.54;39.93
31121;BME280;17770;45.966;13.632;2022-07-30T04:51:06;100279.31;;;32.54;39.82
31121;BME280;17770;45.966;13.632;2022-07-30T04:53:34;100273.34;;;32.52;40.34
31121;BME280;17770;45.966;13.632;2022-07-30T04:56:00;100277.66;;;32.53;39.91
31121;BME280;17770;45.966;13.632;2022-07-30T04:58:28;100272.69;;;32.50;39.79
31121;BME280;17770;45.966;13.632;2022-07-30T05:00:56;100273.53;;;32.51;39.89
31121;BME280;17770;45.966;13.632;2022-07-30T05:03:29;100273.72;;;32.49;40.14
31121;BME280;17770;45.966;13.632;2022-07-30T05:05:56;100272.03;;;32.48;40.00
31121;BME280;17770;45.966;13.632;2022-07-30T05:08:25;100263.38;;;32.46;40.15
31121;BME280;17770;45.966;13.632;2022-07-30T05:10:52;100273.06;;;32.47;39.40
31121;BME280;17770;45.966;13.632;2022-07-30T05:13:18;100277.56;;;32.47;39.70
31121;BME280;17770;45.966;13.632;2022-07-30T05:15:45;100273.44;;;32.44;39.58
31121;BME280;17770;45.966;13.632;2022-07-30T05:18:12;100271.59;;;32.45;40.03
31121;BME280;17770;45.966;13.632;2022-07-30T05:20:41;100265.63;;;32.43;39.66
31121;BME280;17770;45.966;13.632;2022-07-30T05:23:27;100263.13;;;32.41;40.08
31121;BME280;17770;45.966;13.632;2022-07-30T05:26:19;100269.94;;;32.44;39.77
31121;BME280;17770;45.966;13.632;2022-07-30T05:28:47;100263.13;;;32.41;39.83
31121;BME280;17770;45.966;13.632;2022-07-30T05:31:14;100276.47;;;32.41;39.76
31121;BME280;17770;45.966;13.632;2022-07-30T05:33:45;100272.34;;;32.39;40.16
31121;BME280;17770;45.966;13.632;2022-07-30T05:36:15;100278.69;;;32.38;40.36
31121;BME280;17770;45.966;13.632;2022-07-30T05:38:40;100272.34;;;32.39;39.96
31121;BME280;17770;45.966;13.632;2022-07-30T05:41:26;100276.00;;;32.38;39.64
31121;BME280;17770;45.966;13.632;2022-07-30T05:44:01;100275.38;;;32.36;40.18
31121;BME280;17770;45.966;13.632;2022-07-30T05:46:27;100270.03;;;32.36;40.06
31121;BME280;17770;45.966;13.632;2022-07-30T05:48:53;100268.34;;;32.35;39.80
31121;BME280;17770;45.966;13.632;2022-07-30T05:51:19;100269.38;;;32.34;39.68
31121;BME280;17770;45.966;13.632;2022-07-30T05:53:46;100273.69;;;32.35;40.23
31121;BME280;17770;45.966;13.632;2022-07-30T05:56:31;100281.09;;;32.33;39.86
31121;BME280;17770;45.966;13.632;2022-07-30T05:59:06;100275.94;;;32.31;39.91
31121;BME280;17770;45.966;13.632;2022-07-30T06:01:52;100279.59;;;32.30;39.71
31121;BME280;17770;45.966;13.632;2022-07-30T06:04:24;100284.94;;;32.30;40.40
31121;BME280;17770;45.966;13.632;2022-07-30T06:06:56;100285.97;;;32.29;39.75
31121;BME280;17770;45.966;13.632;2022-07-30T06:09:23;100282.47;;;32.29;40.34
31121;BME280;17770;45.966;13.632;2022-07-30T06:11:49;100285.13;;;32.29;40.37
31121;BME280;17770;45.966;13.632;2022-07-30T06:14:15;100280.81;;;32.28;40.10
31121;BME280;17770;45.966;13.632;2022-07-30T06:16:41;100279.13;;;32.27;40.42
31121;BME280;17770;45.966;13.632;2022-07-30T06:19:07;100283.81;;;32.25;40.64
31121;BME280;17770;45.966;13.632;2022-07-30T06:21:42;100281.81;;;32.27;40.48
31121;BME280;17770;45.966;13.632;2022-07-30T06:24:12;100286.50;;;32.25;40.14
31121;BME280;17770;45.966;13.632;2022-07-30T06:26:42;100291.03;;;32.24;40.66
31121;BME280;17770;45.966;13.632;2022-07-30T06:29:08;100288.56;;;32.23;40.25
31121;BME280;17770;45.966;13.632;2022-07-30T06:31:34;100302.91;;;32.22;40.55
31121;BME280;17770;45.966;13.632;2022-07-30T06:34:03;100301.06;;;32.22;40.20
31121;BME280;17770;45.966;13.632;2022-07-30T06:36:34;100301.06;;;32.22;40.12
31121;BME280;17770;45.966;13.632;2022-07-30T06:39:04;100300.41;;;32.20;40.68
31121;BME280;17770;45.966;13.632;2022-07-30T06:41:50;100300.59;;;32.19;40.70
31121;BME280;17770;45.966;13.632;2022-07-30T06:44:16;100297.75;;;32.20;40.75
31121;BME280;17770;45.966;13.632;2022-07-30T06:47:01;100300.59;;;32.19;40.41
31121;BME280;17770;45.966;13.632;2022-07-30T06:49:26;100302.63;;;32.17;40.45
31121;BME280;17770;45.966;13.632;2022-07-30T06:51:53;100298.31;;;32.16;40.70
31121;BME280;17770;45.966;13.632;2022-07-30T06:54:19;100299.16;;;32.16;40.25
31121;BME280;17770;45.966;13.632;2022-07-30T06:57:01;100288.66;;;32.15;40.25
31121;BME280;17770;45.966;13.632;2022-07-30T06:59:28;100293.34;;;32.13;40.52
31121;BME280;17770;45.966;13.632;2022-07-30T07:02:13;100297.66;;;32.14;40.80
31121;BME280;17770;45.966;13.632;2022-07-30T07:05:08;100297.00;;;32.12;40.85
31121;BME280;17770;45.966;13.632;2022-07-30T07:07:35;100291.66;;;32.12;40.96
31121;BME280;17770;45.966;13.632;2022-07-30T07:10:02;100283.66;;;32.12;40.72
31121;BME280;17770;45.966;13.632;2022-07-30T07:12:51;100288.19;;;32.11;40.49
31121;BME280;17770;45.966;13.632;2022-07-30T07:15:19;100291.22;;;32.08;41.37
31121;BME280;17770;45.966;13.632;2022-07-30T07:17:45;100285.72;;;32.10;41.32
31121;BME280;17770;45.966;13.632;2022-07-30T07:20:29;100280.38;;;32.10;41.18
31121;BME280;17770;45.966;13.632;2022-07-30T07:23:01;100281.38;;;32.09;40.72
31121;BME280;17770;45.966;13.632;2022-07-30T07:25:27;100284.22;;;32.07;41.37
31121;BME280;17770;45.966;13.632;2022-07-30T07:27:53;100281.56;;;32.07;40.64
31121;BME280;17770;45.966;13.632;2022-07-30T07:30:19;100284.41;;;32.06;41.01
31121;BME280;17770;45.966;13.632;2022-07-30T07:32:45;100284.22;;;32.07;41.38
31121;BME280;17770;45.966;13.632;2022-07-30T07:35:12;100276.22;;;32.07;40.55
31121;BME280;17770;45.966;13.632;2022-07-30T07:37:42;100277.25;;;32.06;41.09
31121;BME280;17770;45.966;13.632;2022-07-30T07:40:12;100288.72;;;32.07;40.85
31121;BME280;17770;45.966;13.632;2022-07-30T07:42:41;100293.44;;;32.05;41.42
31121;BME280;17770;45.966;13.632;2022-07-30T07:45:07;100295.28;;;32.04;41.04
31121;BME280;17770;45.966;13.632;2022-07-30T07:47:46;100297.94;;;32.04;40.73
31121;BME280;17770;45.966;13.632;2022-07-30T07:50:19;100301.44;;;32.05;40.97
31121;BME280;17770;45.966;13.632;2022-07-30T07:52:45;100301.66;;;32.03;40.77
31121;BME280;17770;45.966;13.632;2022-07-30T07:55:12;100307.13;;;32.02;41.44
31121;BME280;17770;45.966;13.632;2022-07-30T07:57:41;100313.31;;;32.02;41.13
31121;BME280;17770;45.966;13.632;2022-07-30T08:00:08;100326.66;;;32.02;41.05
31121;BME280;17770;45.966;13.632;2022-07-30T08:02:45;100326.66;;;32.02;40.79
31121;BME280;17770;45.966;13.632;2022-07-30T08:05:11;100322.53;;;32.00;41.07
31121;BME280;17770;45.966;13.632;2022-07-30T08:07:37;100322.72;;;31.98;40.82
31121;BME280;17770;45.966;13.632;2022-07-30T08:10:22;100328.22;;;31.97;41.42
31121;BME280;17770;45.966;13.632;2022-07-30T08:13:06;100332.56;;;31.98;40.73
31121;BME280;17770;45.966;13.632;2022-07-30T08:16:02;100332.75;;;31.96;40.92
31121;BME280;17770;45.966;13.632;2022-07-30T08:18:46;100332.94;;;31.95;41.08
31121;BME280;17770;45.966;13.632;2022-07-30T08:21:26;100341.75;;;31.95;41.69
31121;BME280;17770;45.966;13.632;2022-07-30T08:23:52;100333.91;;;31.94;41.66
31121;BME280;17770;45.966;13.632;2022-07-30T08:26:18;100342.75;;;31.94;40.99
31121;BME280;17770;45.966;13.632;2022-07-30T08:28:43;100340.94;;;31.95;41.50
31121;BME280;17770;45.966;13.632;2022-07-30T08:31:11;100340.28;;;31.93;41.10
31121;BME280;17770;45.966;13.632;2022-07-30T08:33:37;100347.06;;;31.95;41.08
31121;BME280;17770;45.966;13.632;2022-07-30T08:36:03;100344.41;;;31.95;41.23
31121;BME280;17770;45.966;13.632;2022-07-30T08:38:29;100348.47;;;31.91;41.06
31121;BME280;17770;45.966;13.632;2022-07-30T08:40:55;100350.13;;;31.92;41.49
31121;BME280;17770;45.966;13.632;2022-07-30T08:43:21;100344.78;;;31.92;41.51
31121;BME280;17770;45.966;13.632;2022-07-30T08:45:49;100347.44;;;31.92;41.14
31121;BME280;17770;45.966;13.632;2022-07-30T08:48:41;100354.47;;;31.93;40.96
31121;BME280;17770;45.966;13.632;2022-07-30T08:51:07;100366.97;;;31.93;41.46
31121;BME280;17770;45.966;13.632;2022-07-30T08:53:33;100360.78;;;31.92;40.66
31121;BME280;17770;45.966;13.632;2022-07-30T08:55:59;100356.47;;;31.91;41.52
31121;BME280;17770;45.966;13.632;2022-07-30T08:58:30;100354.66;;;31.92;41.28
31121;BME280;17770;45.966;13.632;2022-07-30T09:00:56;100347.63;;;31.91;41.16
31121;BME280;17770;45.966;13.632;2022-07-30T09:03:22;100348.66;;;31.90;41.51
31121;BME280;17770;45.966;13.632;2022-07-30T09:05:48;100350.31;;;31.91;41.15
31121;BME280;17770;45.966;13.632;2022-07-30T09:08:15;100345.16;;;31.89;41.46
31121;BME280;17770;45.966;13.632;2022-07-30T09:10:41;100344.97;;;31.91;40.99
31121;BME280;17770;45.966;13.632;2022-07-30T09:15:56;100352.13;;;31.90;40.86
31121;BME280;17770;45.966;13.632;2022-07-30T09:18:27;100356.84;;;31.88;41.55
31121;BME280;17770;45.966;13.632;2022-07-30T09:20:54;100348.66;;;31.90;41.13
31121;BME280;17770;45.966;13.632;2022-07-30T09:23:20;100354.00;;;31.90;41.42
31121;BME280;17770;45.966;13.632;2022-07-30T09:26:11;100348.00;;;31.88;41.36
31121;BME280;17770;45.966;13.632;2022-07-30T09:29:15;100355.81;;;31.89;40.83
31121;BME280;17770;45.966;13.632;2022-07-30T09:32:01;100345.34;;;31.88;41.01
31121;BME280;17770;45.966;13.632;2022-07-30T09:34:50;100349.84;;;31.87;41.44
31121;BME280;17770;45.966;13.632;2022-07-30T09:37:35;100349.66;;;31.89;41.13
31121;BME280;17770;45.966;13.632;2022-07-30T09:40:21;100341.03;;;31.87;41.12
31121;BME280;17770;45.966;13.632;2022-07-30T09:43:10;100351.69;;;31.87;41.21
31121;BME280;17770;45.966;13.632;2022-07-30T09:45:48;100349.16;;;31.85;41.01
31121;BME280;17770;45.966;13.632;2022-07-30T09:48:24;100350.03;;;31.86;40.46
31121;BME280;17770;45.966;13.632;2022-07-30T09:50:50;100351.81;;;31.85;40.78
31121;BME280;17770;45.966;13.632;2022-07-30T09:53:17;100353.53;;;31.86;40.92
31121;BME280;17770;45.966;13.632;2022-07-30T09:55:43;100357.84;;;31.87;40.53
31121;BME280;17770;45.966;13.632;2022-07-30T09:58:10;100350.69;;;31.88;40.66
31121;BME280;17770;45.966;13.632;2022-07-30T10:00:36;100350.50;;;31.89;40.26
31121;BME280;17770;45.966;13.632;2022-07-30T10:03:25;100354.66;;;31.92;40.49
31121;BME280;17770;45.966;13.632;2022-07-30T10:06:09;100348.47;;;31.91;40.39
31121;BME280;17770;45.966;13.632;2022-07-30T10:11:07;100348.28;;;31.93;40.62
31121;BME280;17770;45.966;13.632;2022-07-30T10:13:34;100351.78;;;31.93;39.99
31121;BME280;17770;45.966;13.632;2022-07-30T10:16:01;100342.75;;;31.94;40.62
31121;BME280;17770;45.966;13.632;2022-07-30T10:18:27;100340.94;;;31.95;40.47
31121;BME280;17770;45.966;13.632;2022-07-30T10:20:54;100341.75;;;31.95;40.36
31121;BME280;17770;45.966;13.632;2022-07-30T10:23:46;100340.75;;;31.96;40.29
31121;BME280;17770;45.966;13.632;2022-07-30T10:26:47;100342.59;;;31.96;40.04
31121;BME280;17770;45.966;13.632;2022-07-30T10:29:32;100345.91;;;31.98;40.25
31121;BME280;17770;45.966;13.632;2022-07-30T10:31:59;100345.91;;;31.98;40.10
31121;BME280;17770;45.966;13.632;2022-07-30T10:34:25;100343.88;;;32.00;40.10
31121;BME280;17770;45.966;13.632;2022-07-30T10:36:51;100340.19;;;32.01;39.31
31121;BME280;17770;45.966;13.632;2022-07-30T10:39:23;100334.66;;;32.02;39.56
31121;BME280;17770;45.966;13.632;2022-07-30T10:49:13;100323.81;;;32.04;39.60
31121;BME280;17770;45.966;13.632;2022-07-30T10:51:41;100328.16;;;32.05;39.26
31121;BME280;17770;45.966;13.632;2022-07-30T10:54:26;100322.63;;;32.06;38.90
31121;BME280;17770;45.966;13.632;2022-07-30T10:57:35;100321.41;;;32.09;39.23
31121;BME280;17770;45.966;13.632;2022-07-30T11:02:20;100322.91;;;32.11;39.08
31121;BME280;17770;45.966;13.632;2022-07-30T11:04:46;100329.69;;;32.14;39.15
31121;BME280;17770;45.966;13.632;2022-07-30T11:09:54;100324.16;;;32.15;38.57
31121;BME280;17770;45.966;13.632;2022-07-30T11:15:05;100315.59;;;32.20;39.17
31121;BME280;17770;45.966;13.632;2022-07-30T11:17:56;100315.44;;;32.21;38.42
31121;BME280;17770;45.966;13.632;2022-07-30T11:20:40;100306.22;;;32.24;38.56
31121;BME280;17770;45.966;13.632;2022-07-30T11:25:38;100316.72;;;32.25;38.60
31121;BME280;17770;45.966;13.632;2022-07-30T11:28:05;100307.88;;;32.25;38.90
31121;BME280;17770;45.966;13.632;2022-07-30T11:30:31;100309.34;;;32.27;38.40
31121;BME280;17770;45.966;13.632;2022-07-30T11:35:27;100305.47;;;32.30;38.85
31121;BME280;17770;45.966;13.632;2022-07-30T11:40:23;100293.59;;;32.32;38.57
31121;BME280;17770;45.966;13.632;2022-07-30T11:42:50;100301.41;;;32.34;38.35
31121;BME280;17770;45.966;13.632;2022-07-30T11:47:48;100292.03;;;32.38;38.23
31121;BME280;17770;45.966;13.632;2022-07-30T11:50:21;100285.69;;;32.39;38.41
31121;BME280;17770;45.966;13.632;2022-07-30T11:52:57;100286.53;;;32.39;38.62
31121;BME280;17770;45.966;13.632;2022-07-30T11:55:25;100282.00;;;32.40;38.38
31121;BME280;17770;45.966;13.632;2022-07-30T11:57:52;100281.81;;;32.41;38.49
31121;BME280;17770;45.966;13.632;2022-07-30T12:00:18;100284.13;;;32.44;38.45
31121;BME280;17770;45.966;13.632;2022-07-30T12:02:44;100285.78;;;32.45;38.60
31121;BME280;17770;45.966;13.632;2022-07-30T12:05:10;100282.91;;;32.47;38.36
31121;BME280;17770;45.966;13.632;2022-07-30T12:07:36;100283.56;;;32.49;38.28
31121;BME280;17770;45.966;13.632;2022-07-30T12:10:14;100285.84;;;32.52;38.07
31121;BME280;17770;45.966;13.632;2022-07-30T12:12:41;100280.31;;;32.53;38.57
31121;BME280;17770;45.966;13.632;2022-07-30T12:15:07;100281.16;;;32.54;38.71
31121;BME280;17770;45.966;13.632;2022-07-30T12:17:40;100277.25;;;32.56;38.05
31121;BME280;17770;45.966;13.632;2022-07-30T12:20:12;100285.72;;;32.60;38.46
31121;BME280;17770;45.966;13.632;2022-07-30T12:22:39;100277.53;;;32.61;38.81
31121;BME280;17770;45.966;13.632;2022-07-30T12:25:09;100275.50;;;32.63;38.50
31121;BME280;17770;45.966;13.632;2022-07-30T12:27:35;100270.81;;;32.65;38.07
31121;BME280;17770;45.966;13.632;2022-07-30T12:30:02;100274.94;;;32.68;38.52
31121;BME280;17770;45.966;13.632;2022-07-30T12:32:28;100266.09;;;32.67;38.72
31121;BME280;17770;45.966;13.632;2022-07-30T12:34:56;100276.78;;;32.67;38.55
31121;BME280;17770;45.966;13.632;2022-07-30T12:37:22;100279.28;;;32.69;38.78
31121;BME280;17770;45.966;13.632;2022-07-30T12:39:48;100274.72;;;32.69;38.77
31121;BME280;17770;45.966;13.632;2022-07-30T12:42:18;100273.53;;;32.72;38.92
31121;BME280;17770;45.966;13.632;2022-07-30T12:44:44;100267.38;;;32.71;38.86
31121;BME280;17770;45.966;13.632;2022-07-30T12:47:28;100274.38;;;32.72;38.62
31121;BME280;17770;45.966;13.632;2022-07-30T12:49:58;100269.66;;;32.74;39.50
31121;BME280;17770;45.966;13.632;2022-07-30T12:52:29;100264.94;;;32.76;39.38
31121;BME280;17770;45.966;13.632;2022-07-30T12:54:56;100263.75;;;32.79;39.22
31121;BME280;17770;45.966;13.632;2022-07-30T12:57:22;100259.03;;;32.81;38.74
31121;BME280;17770;45.966;13.632;2022-07-30T12:59:59;100258.41;;;32.79;38.24
31121;BME280;17770;45.966;13.632;2022-07-30T13:02:34;100240.31;;;32.81;39.08
31121;BME280;17770;45.966;13.632;2022-07-30T13:05:01;100243.63;;;32.83;39.03
31121;BME280;17770;45.966;13.632;2022-07-30T13:07:27;100240.56;;;32.86;38.83
31121;BME280;17770;45.966;13.632;2022-07-30T13:10:09;100245.56;;;32.89;39.37
31121;BME280;17770;45.966;13.632;2022-07-30T13:12:36;100248.06;;;32.90;39.28
31121;BME280;17770;45.966;13.632;2022-07-30T13:15:02;100247.88;;;32.92;39.69
31121;BME280;17770;45.966;13.632;2022-07-30T13:17:29;100242.34;;;32.93;39.55
31121;BME280;17770;45.966;13.632;2022-07-30T13:19:55;100234.13;;;32.95;39.06
31121;BME280;17770;45.966;13.632;2022-07-30T13:22:21;100240.91;;;32.97;39.71
31121;BME280;17770;45.966;13.632;2022-07-30T13:24:47;100236.22;;;32.99;39.73
31121;BME280;17770;45.966;13.632;2022-07-30T13:27:12;100231.31;;;33.03;39.87
31121;BME280;17770;45.966;13.632;2022-07-30T13:29:41;100235.47;;;33.06;39.78
31121;BME280;17770;45.966;13.632;2022-07-30T13:32:07;100228.88;;;33.08;39.22